createdAt,value
2018-07-28T00:01:48.834Z,24.50
2018-07-28T00:04:16.281Z,24.40
2018-07-28T00:06:43.730Z,24.40
2018-07-28T00:09:11.593Z,24.40
2018-07-28T00:11:39.821Z,24.20
2018-07-28T00:14:07.576Z,24.20
2018-07-28T00:16:48.919Z,24.20
2018-07-28T00:19:16.612Z,24.20
2018-07-28T00:21:44.052Z,24.20
2018-07-28T00:24:11.493Z,24.10
2018-07-28T00:26:38.946Z,24.00
2018-07-28T00:29:06.388Z,23.90
2018-07-28T00:31:33.955Z,23.90
2018-07-28T00:34:01.517Z,23.80
2018-07-28T00:36:28.988Z,23.80
2018-07-28T00:38:56.434Z,23.70
2018-07-28T00:41:23.888Z,23.60
2018-07-28T00:43:51.414Z,23.60
2018-07-28T00:46:18.852Z,23.50
2018-07-28T00:48:46.284Z,23.60
2018-07-28T00:51:13.936Z,23.60
2018-07-28T00:53:41.415Z,23.60
2018-07-28T00:56:08.864Z,23.50
2018-07-28T00:58:36.305Z,23.60
2018-07-28T01:01:03.741Z,23.50
2018-07-28T01:03:31.231Z,23.50
2018-07-28T01:05:58.766Z,23.50
2018-07-28T01:08:26.320Z,23.50
2018-07-28T01:10:53.805Z,23.50
2018-07-28T01:13:21.236Z,23.50
2018-07-28T01:15:48.697Z,23.50
2018-07-28T01:18:16.113Z,23.60
2018-07-28T01:20:43.553Z,23.60
2018-07-28T01:23:10.992Z,23.30
2018-07-28T01:25:38.628Z,23.20
2018-07-28T01:28:06.085Z,23.30
2018-07-28T01:30:33.549Z,23.20
2018-07-28T01:33:01.357Z,23.10
2018-07-28T01:37:56.575Z,23.00
2018-07-28T01:42:51.210Z,22.90
2018-07-28T01:45:18.673Z,22.80
2018-07-28T01:47:46.101Z,22.80
2018-07-28T01:50:13.521Z,22.80
2018-07-28T01:52:41.424Z,22.80
2018-07-28T01:57:36.116Z,22.70
2018-07-28T02:00:04.465Z,22.70
2018-07-28T02:02:31.893Z,22.70
2018-07-28T02:04:59.309Z,22.70
2018-07-28T02:07:26.733Z,22.60
2018-07-28T02:09:54.154Z,22.50
2018-07-28T02:12:21.644Z,22.40
2018-07-28T02:14:49.141Z,22.30
2018-07-28T02:17:16.562Z,22.30
2018-07-28T02:19:44.195Z,22.30
2018-07-28T02:22:11.619Z,22.30
2018-07-28T02:24:39.233Z,22.20
2018-07-28T02:27:06.662Z,22.20
2018-07-28T02:29:34.089Z,22.10
2018-07-28T02:32:01.699Z,22.20
2018-07-28T02:34:29.124Z,22.20
2018-07-28T02:36:56.546Z,22.20
2018-07-28T02:39:23.977Z,22.20
2018-07-28T02:41:51.413Z,22.20
2018-07-28T02:44:18.833Z,22.20
2018-07-28T02:46:46.440Z,22.20
2018-07-28T02:49:13.860Z,22.20
2018-07-28T02:51:41.284Z,22.20
2018-07-28T02:54:08.715Z,22.10
2018-07-28T02:56:36.133Z,22.10
2018-07-28T02:59:03.577Z,22.00
2018-07-28T03:01:30.993Z,21.90
2018-07-28T03:03:58.422Z,21.90
2018-07-28T03:06:25.845Z,21.90
2018-07-28T03:08:53.527Z,21.90
2018-07-28T03:11:20.993Z,21.90
2018-07-28T03:13:48.631Z,21.80
2018-07-28T03:16:16.237Z,21.80
2018-07-28T03:18:43.865Z,21.90
2018-07-28T03:21:11.526Z,21.90
2018-07-28T03:23:39.034Z,21.90
2018-07-28T03:26:06.473Z,22.00
2018-07-28T03:28:34.065Z,22.00
2018-07-28T03:31:01.499Z,22.00
2018-07-28T03:33:29.048Z,22.00
2018-07-28T03:35:56.474Z,22.00
2018-07-28T03:38:23.992Z,22.00
2018-07-28T03:40:51.405Z,22.00
2018-07-28T03:43:19.057Z,22.00
2018-07-28T03:45:46.478Z,22.00
2018-07-28T03:48:13.900Z,21.90
2018-07-28T03:50:41.337Z,21.80
2018-07-28T03:53:08.758Z,21.70
2018-07-28T03:55:36.238Z,21.70
2018-07-28T03:58:03.638Z,21.70
2018-07-28T04:00:31.072Z,21.70
2018-07-28T04:02:58.664Z,21.60
2018-07-28T04:05:26.116Z,21.60
2018-07-28T04:07:53.532Z,21.60
2018-07-28T04:10:20.961Z,21.60
2018-07-28T04:12:48.381Z,21.50
2018-07-28T04:15:15.922Z,21.50
2018-07-28T04:17:58.074Z,21.60
2018-07-28T04:20:26.577Z,21.50
2018-07-28T04:22:54.438Z,21.40
2018-07-28T04:27:49.674Z,21.40
2018-07-28T04:30:17.490Z,21.40
2018-07-28T04:32:44.905Z,21.50
2018-07-28T04:35:12.381Z,21.20
2018-07-28T04:37:40.120Z,21.30
2018-07-28T04:40:08.906Z,21.40
2018-07-28T04:42:36.330Z,21.50
2018-07-28T04:45:03.845Z,21.60
2018-07-28T04:47:31.333Z,21.60
2018-07-28T04:49:58.776Z,21.70
2018-07-28T04:52:26.188Z,21.80
2018-07-28T04:54:53.723Z,21.80
2018-07-28T04:57:21.146Z,21.90
2018-07-28T04:59:48.583Z,21.80
2018-07-28T05:02:16.072Z,21.90
2018-07-28T05:04:43.510Z,21.90
2018-07-28T05:07:10.990Z,21.80
2018-07-28T05:09:38.417Z,21.80
2018-07-28T05:12:05.937Z,21.90
2018-07-28T05:14:33.430Z,22.00
2018-07-28T05:17:00.924Z,22.20
2018-07-28T05:19:28.409Z,22.00
2018-07-28T05:21:55.870Z,22.00
2018-07-28T05:24:23.362Z,22.20
2018-07-28T05:26:50.926Z,22.10
2018-07-28T05:29:18.355Z,22.10
2018-07-28T05:31:45.781Z,22.30
2018-07-28T05:34:13.205Z,22.40
2018-07-28T05:36:40.625Z,22.40
2018-07-28T05:39:08.639Z,22.60
2018-07-28T05:41:36.029Z,22.70
2018-07-28T05:44:03.522Z,22.90
2018-07-28T05:46:30.949Z,23.00
2018-07-28T05:48:58.389Z,23.10
2018-07-28T05:51:25.816Z,23.20
2018-07-28T05:53:53.229Z,23.40
2018-07-28T05:56:20.703Z,23.50
2018-07-28T05:58:48.118Z,23.80
2018-07-28T06:01:15.545Z,24.00
2018-07-28T06:03:43.102Z,24.30
2018-07-28T06:06:10.657Z,24.50
2018-07-28T06:08:38.093Z,24.70
2018-07-28T06:11:05.563Z,24.80
2018-07-28T06:13:32.964Z,24.80
2018-07-28T06:16:00.397Z,25.00
2018-07-28T06:18:27.818Z,25.30
2018-07-28T06:20:55.245Z,25.50
2018-07-28T06:23:22.669Z,25.60
2018-07-28T06:25:50.306Z,25.70
2018-07-28T06:28:17.864Z,25.80
2018-07-28T06:30:45.305Z,26.00
2018-07-28T06:33:12.720Z,26.10
2018-07-28T06:35:40.617Z,26.40
2018-07-28T06:38:08.047Z,26.50
2018-07-28T06:40:35.486Z,26.60
2018-07-28T06:43:02.893Z,26.80
2018-07-28T06:45:30.325Z,26.90
2018-07-28T06:47:57.742Z,27.00
2018-07-28T06:50:25.164Z,27.10
2018-07-28T06:52:52.777Z,27.20
2018-07-28T06:55:20.481Z,26.90
2018-07-28T06:57:47.897Z,26.80
2018-07-28T07:00:15.338Z,26.70
2018-07-28T07:02:42.780Z,26.60
2018-07-28T07:05:10.365Z,26.60
2018-07-28T07:07:37.770Z,26.50
2018-07-28T07:10:05.421Z,26.60
2018-07-28T07:12:32.845Z,26.70
2018-07-28T07:15:00.273Z,26.70
2018-07-28T07:17:27.861Z,26.80
2018-07-28T07:19:55.396Z,26.80
2018-07-28T07:22:22.955Z,26.90
2018-07-28T07:24:50.645Z,27.00
2018-07-28T07:27:18.085Z,27.30
2018-07-28T07:29:45.566Z,27.70
2018-07-28T07:32:12.998Z,28.10
2018-07-28T07:34:40.417Z,28.30
2018-07-28T07:37:07.875Z,28.60
2018-07-28T07:39:35.309Z,28.70
2018-07-28T07:42:02.769Z,28.80
2018-07-28T07:44:30.193Z,29.10
2018-07-28T07:46:57.630Z,29.50
2018-07-28T07:49:25.179Z,30.00
2018-07-28T07:51:52.758Z,30.50
2018-07-28T07:54:20.313Z,30.90
2018-07-28T07:56:47.875Z,30.80
2018-07-28T07:59:15.421Z,30.70
2018-07-28T08:01:42.853Z,30.40
2018-07-28T08:04:10.349Z,30.40
2018-07-28T08:06:37.825Z,30.10
2018-07-28T08:09:06.805Z,30.10
2018-07-28T08:12:38.461Z,29.90
2018-07-28T08:15:05.838Z,29.80
2018-07-28T08:17:34.038Z,29.60
2018-07-28T08:20:01.614Z,29.40
2018-07-28T08:22:29.062Z,29.40
2018-07-28T08:24:56.483Z,29.40
2018-07-28T08:27:23.961Z,29.50
2018-07-28T08:29:51.438Z,29.40
2018-07-28T08:32:22.292Z,29.50
2018-07-28T08:37:16.958Z,29.40
2018-07-28T08:39:44.414Z,29.30
2018-07-28T08:42:11.869Z,29.30
2018-07-28T08:44:39.302Z,29.20
2018-07-28T08:47:07.157Z,29.10
2018-07-28T10:26:32.133Z,29.30
2018-07-28T10:28:59.594Z,31.90
2018-07-28T10:31:27.186Z,31.80
2018-07-28T10:33:54.681Z,32.00
2018-07-28T10:36:22.181Z,32.10
2018-07-28T10:38:49.624Z,32.20
2018-07-28T10:41:17.049Z,32.40
2018-07-28T10:43:44.651Z,32.50
2018-07-28T10:46:12.231Z,32.50
2018-07-28T10:48:39.659Z,32.50
2018-07-28T10:51:07.293Z,32.60
2018-07-28T10:53:34.717Z,32.80
2018-07-28T10:56:02.217Z,33.00
2018-07-28T10:58:29.646Z,33.30
2018-07-28T11:00:57.266Z,33.60
2018-07-28T11:03:24.695Z,33.90
2018-07-28T11:05:52.113Z,34.30
2018-07-28T11:08:19.532Z,34.60
2018-07-28T11:10:47.174Z,34.60
2018-07-28T11:13:14.597Z,34.40
2018-07-28T11:15:42.140Z,34.40
2018-07-28T11:20:36.809Z,34.00
2018-07-28T11:23:04.300Z,34.10
2018-07-28T11:25:31.713Z,34.20
2018-07-28T11:27:59.349Z,33.90
2018-07-28T11:30:26.763Z,33.90
2018-07-28T11:33:00.133Z,34.00
2018-07-28T11:35:33.318Z,34.30
2018-07-28T11:38:06.642Z,34.40
2018-07-28T11:40:41.889Z,34.30
2018-07-28T11:43:15.214Z,34.10
2018-07-28T11:45:42.699Z,34.00
2018-07-28T11:50:37.490Z,33.90
2018-07-28T11:53:04.915Z,34.00
2018-07-28T11:55:32.329Z,34.20
2018-07-28T11:57:59.786Z,34.20
2018-07-28T12:00:27.233Z,34.40
2018-07-28T12:02:54.667Z,34.50
2018-07-28T12:05:22.255Z,34.60
2018-07-28T12:07:49.670Z,34.70
2018-07-28T12:10:17.125Z,34.40
2018-07-28T12:12:44.551Z,34.20
2018-07-28T12:15:12.076Z,34.20
2018-07-28T12:17:39.497Z,34.30
2018-07-28T12:20:07.073Z,34.20
2018-07-28T12:22:34.537Z,34.20
2018-07-28T12:25:02.107Z,33.90
2018-07-28T12:27:29.697Z,34.00
2018-07-28T12:29:57.342Z,34.10
2018-07-28T12:32:24.883Z,34.10
2018-07-28T12:34:52.314Z,34.20
2018-07-28T12:37:19.733Z,34.00
2018-07-28T12:39:47.366Z,33.90
2018-07-28T12:42:14.789Z,33.90
2018-07-28T12:44:42.240Z,33.90
2018-07-28T12:47:09.816Z,33.80
2018-07-28T12:49:37.480Z,33.70
2018-07-28T12:52:04.826Z,33.80
2018-07-28T12:54:32.245Z,33.90
2018-07-28T12:56:59.878Z,33.80
2018-07-28T12:59:27.332Z,33.80
2018-07-28T13:01:54.880Z,33.90
2018-07-28T13:04:22.439Z,33.90
2018-07-28T13:06:49.875Z,33.90
2018-07-28T13:09:17.297Z,33.70
2018-07-28T13:11:44.945Z,33.60
2018-07-28T13:14:12.364Z,33.70
2018-07-28T13:16:39.797Z,33.70
2018-07-28T13:19:07.386Z,33.50
2018-07-28T13:21:34.821Z,33.40
2018-07-28T13:24:02.396Z,33.50
2018-07-28T13:26:31.852Z,33.20
2018-07-28T13:28:59.494Z,33.10
2018-07-28T13:31:27.068Z,33.00
2018-07-28T13:33:55.634Z,32.90
2018-07-28T13:36:23.180Z,32.80
2018-07-28T13:38:50.606Z,32.60
2018-07-28T13:41:18.269Z,32.50
2018-07-28T13:43:45.839Z,32.50
2018-07-28T13:46:14.174Z,32.40
2018-07-28T13:48:41.575Z,32.20
2018-07-28T13:51:09.057Z,32.00
2018-07-28T13:53:36.610Z,31.80
2018-07-28T13:56:04.206Z,31.70
2018-07-28T13:58:31.636Z,31.50
2018-07-28T14:00:59.125Z,31.10
2018-07-28T14:03:26.549Z,31.00
2018-07-28T14:05:54.085Z,31.00
2018-07-28T14:08:21.510Z,31.10
2018-07-28T14:10:48.959Z,31.10
2018-07-28T14:13:16.390Z,31.20
2018-07-28T14:15:43.826Z,31.10
2018-07-28T14:18:11.300Z,31.00
2018-07-28T14:20:38.687Z,30.90
2018-07-28T14:23:06.114Z,31.00
2018-07-28T14:25:33.540Z,31.00
2018-07-28T14:28:00.977Z,30.90
2018-07-28T14:30:28.400Z,30.70
2018-07-28T14:32:55.926Z,30.60
2018-07-28T14:35:23.350Z,30.50
2018-07-28T14:37:50.945Z,30.50
2018-07-28T14:40:18.361Z,30.60
2018-07-28T14:42:45.997Z,30.60
2018-07-28T14:45:13.424Z,30.50
2018-07-28T14:47:40.861Z,30.40
2018-07-28T14:50:08.365Z,30.20
2018-07-28T14:52:35.890Z,30.10
2018-07-28T14:55:03.335Z,30.10
2018-07-28T14:57:30.773Z,30.10
2018-07-28T14:59:58.228Z,30.20
2018-07-28T15:02:25.663Z,30.30
2018-07-28T15:04:53.073Z,30.20
2018-07-28T15:07:20.551Z,30.10
2018-07-28T15:09:47.950Z,30.20
2018-07-28T15:12:15.578Z,30.20
2018-07-28T15:14:43.006Z,30.10
2018-07-28T15:17:10.610Z,29.90
2018-07-28T15:19:38.118Z,29.90
2018-07-28T15:22:05.553Z,30.00
2018-07-28T15:24:33.169Z,30.00
2018-07-28T15:27:00.589Z,30.10
2018-07-28T15:29:28.041Z,30.20
2018-07-28T15:31:55.474Z,30.30
2018-07-28T15:34:23.285Z,30.40
2018-07-28T15:36:50.748Z,30.40
2018-07-28T15:39:18.120Z,30.50
2018-07-28T15:41:45.549Z,30.50
2018-07-28T15:44:12.983Z,30.50
2018-07-28T15:46:40.409Z,30.60
2018-07-28T15:49:07.955Z,30.60
2018-07-28T15:51:35.359Z,30.60
2018-07-28T15:54:02.828Z,30.40
2018-07-28T15:56:30.329Z,30.50
2018-07-28T15:58:57.765Z,30.40
2018-07-28T16:01:25.306Z,30.40
2018-07-28T16:03:52.755Z,30.30
2018-07-28T16:06:20.355Z,30.20
2018-07-28T16:08:47.776Z,30.40
2018-07-28T16:11:15.207Z,30.40
2018-07-28T16:13:42.780Z,30.40
2018-07-28T16:16:10.206Z,30.50
2018-07-28T16:18:37.644Z,30.50
2018-07-28T16:21:05.307Z,30.40
2018-07-28T16:23:32.750Z,30.50
2018-07-28T16:26:00.174Z,30.60
2018-07-28T16:28:27.738Z,30.50
2018-07-28T16:30:55.197Z,30.50
2018-07-28T16:33:22.630Z,30.40
2018-07-28T16:35:50.061Z,30.40
2018-07-28T16:38:17.513Z,30.40
2018-07-28T16:40:44.977Z,30.20
2018-07-28T16:43:12.401Z,30.20
2018-07-28T16:45:39.927Z,30.20
2018-07-28T16:48:07.363Z,30.20
2018-07-28T16:50:34.985Z,30.20
2018-07-28T16:53:02.442Z,30.30
2018-07-28T16:55:29.869Z,30.30
2018-07-28T16:57:57.424Z,30.20
2018-07-28T17:00:24.901Z,30.10
2018-07-28T17:02:52.345Z,29.90
2018-07-28T17:05:19.792Z,29.90
2018-07-28T17:07:47.571Z,29.90
2018-07-28T17:10:15.020Z,29.90
2018-07-28T17:12:42.709Z,29.90
2018-07-28T17:15:10.814Z,29.80
2018-07-28T17:17:38.415Z,29.80
2018-07-28T17:20:06.963Z,29.80
2018-07-28T17:22:34.613Z,29.90
2018-07-28T17:25:02.066Z,29.80
2018-07-28T17:27:29.501Z,29.70
2018-07-28T17:29:56.937Z,29.70
2018-07-28T17:32:24.392Z,29.70
2018-07-28T17:34:51.961Z,29.60
2018-07-28T17:37:22.311Z,29.70
2018-07-28T17:39:49.733Z,29.70
2018-07-28T17:42:17.181Z,29.80
2018-07-28T17:44:44.762Z,29.80
2018-07-28T17:47:12.304Z,29.50
2018-07-28T17:49:39.735Z,29.60
2018-07-28T17:52:07.265Z,29.70
2018-07-28T17:54:35.872Z,29.70
2018-07-28T17:57:03.279Z,29.60
2018-07-28T17:59:30.729Z,29.60
2018-07-28T18:01:58.281Z,29.40
2018-07-28T18:04:25.794Z,29.40
2018-07-28T18:06:53.230Z,29.40
2018-07-28T18:09:20.881Z,29.40
2018-07-28T18:11:48.472Z,29.30
2018-07-28T18:14:16.094Z,29.30
2018-07-28T18:16:43.540Z,29.30
2018-07-28T18:19:11.099Z,29.20
2018-07-28T18:21:38.520Z,29.20
2018-07-28T18:24:06.144Z,29.20
2018-07-28T18:26:33.588Z,29.00
2018-07-28T18:29:01.032Z,29.00
2018-07-28T18:31:28.586Z,29.00
2018-07-28T18:33:56.162Z,29.00
2018-07-28T18:36:23.694Z,29.00
2018-07-28T18:38:51.302Z,28.90
2018-07-28T18:41:18.730Z,28.90
2018-07-28T18:43:46.288Z,28.80
2018-07-28T18:46:13.754Z,28.90
2018-07-28T18:48:41.198Z,28.80
2018-07-28T18:51:08.645Z,28.70
2018-07-28T18:53:36.102Z,28.60
2018-07-28T18:56:03.538Z,28.40
2018-07-28T18:58:30.968Z,28.30
2018-07-28T19:00:58.398Z,28.20
2018-07-28T19:03:25.858Z,28.00
2018-07-28T19:05:53.401Z,28.00
2018-07-28T19:08:21.058Z,27.90
2018-07-28T19:10:48.484Z,27.90
2018-07-28T19:13:21.367Z,27.90
2018-07-28T19:15:48.805Z,27.80
2018-07-28T19:18:21.991Z,27.80
2018-07-28T19:20:49.404Z,27.60
2018-07-28T19:24:22.003Z,27.60
2018-07-28T19:26:49.628Z,27.60
2018-07-28T19:29:22.551Z,27.60
2018-07-28T19:31:49.995Z,27.60
2018-07-28T19:34:17.433Z,27.60
2018-07-28T19:37:16.317Z,27.40
2018-07-28T19:39:43.843Z,27.40
2018-07-28T19:42:16.982Z,27.20
2018-07-28T19:44:44.466Z,27.20
2018-07-28T19:47:12.010Z,27.20
2018-07-28T19:49:39.509Z,27.10
2018-07-28T19:52:07.010Z,27.00
2018-07-28T19:54:34.478Z,26.90
2018-07-28T19:57:01.903Z,26.80
2018-07-28T19:59:29.390Z,26.80
2018-07-28T20:01:56.831Z,26.60
2018-07-28T20:04:24.355Z,26.60
2018-07-28T20:06:51.826Z,26.50
2018-07-28T20:09:19.222Z,26.40
2018-07-28T20:11:47.733Z,26.40
2018-07-28T20:14:15.372Z,26.30
2018-07-28T20:16:43.539Z,26.20
2018-07-28T20:19:10.965Z,26.20
2018-07-28T20:21:38.415Z,26.10
2018-07-28T20:24:06.032Z,25.90
2018-07-28T20:26:33.519Z,25.80
2018-07-28T20:29:01.055Z,25.80
2018-07-28T20:31:28.683Z,25.80
2018-07-28T20:33:56.238Z,25.80
2018-07-28T20:36:23.703Z,25.60
2018-07-28T20:38:51.276Z,25.50
2018-07-28T20:41:18.982Z,25.50
2018-07-28T20:43:46.599Z,25.50
2018-07-28T20:46:14.250Z,25.40
2018-07-28T20:48:41.830Z,25.20
2018-07-28T20:51:09.557Z,25.20
2018-07-28T20:53:36.941Z,25.20
2018-07-28T20:56:08.336Z,25.20
2018-07-28T20:58:36.825Z,25.10
2018-07-28T21:01:05.201Z,25.00
2018-07-28T21:03:32.846Z,24.90
2018-07-28T21:06:00.269Z,24.90
2018-07-28T21:08:28.013Z,24.80
2018-07-28T21:10:55.588Z,24.70
2018-07-28T21:13:23.011Z,24.70
2018-07-28T21:15:50.589Z,24.60
2018-07-28T21:18:18.158Z,24.60
2018-07-28T21:20:45.582Z,24.50
2018-07-28T21:23:13.005Z,24.50
2018-07-28T21:25:40.448Z,24.50
2018-07-28T21:28:08.504Z,24.50
2018-07-28T21:30:35.846Z,24.40
2018-07-28T21:33:03.412Z,24.40
2018-07-28T21:35:30.972Z,24.20
2018-07-28T21:37:58.399Z,24.20
2018-07-28T21:40:26.010Z,24.20
2018-07-28T21:42:53.472Z,24.10
2018-07-28T21:45:20.900Z,24.00
2018-07-28T21:47:48.329Z,24.00
2018-07-28T21:50:15.775Z,23.70
2018-07-28T21:52:43.197Z,23.70
2018-07-28T21:55:10.620Z,23.80
2018-07-28T21:57:38.033Z,23.80
2018-07-28T22:00:06.836Z,23.80
2018-07-28T22:05:01.661Z,23.80
2018-07-28T22:07:29.038Z,23.80
2018-07-28T22:09:56.539Z,23.80
2018-07-28T22:12:23.958Z,23.80
2018-07-28T22:14:51.389Z,23.70
2018-07-28T22:17:18.810Z,23.70
2018-07-28T22:19:46.245Z,23.70
2018-07-28T22:22:13.690Z,23.60
2018-07-28T22:24:42.262Z,23.60
2018-07-28T22:27:09.696Z,23.50
2018-07-28T22:29:37.115Z,23.50
2018-07-28T22:32:04.541Z,23.40
2018-07-28T22:34:31.957Z,23.30
2018-07-28T22:36:59.413Z,23.30
2018-07-28T22:39:26.826Z,23.20
2018-07-28T22:41:54.301Z,23.20
2018-07-28T22:44:21.915Z,23.20
2018-07-28T22:46:49.362Z,23.10
2018-07-28T22:49:16.790Z,23.20
2018-07-28T22:51:44.223Z,23.20
2018-07-28T22:54:11.629Z,23.20
2018-07-28T22:56:39.096Z,23.20
2018-07-28T22:59:06.526Z,23.20
2018-07-28T23:01:33.981Z,23.20
2018-07-28T23:04:01.418Z,23.00
2018-07-28T23:06:29.041Z,22.90
2018-07-28T23:08:56.496Z,22.80
2018-07-28T23:11:23.909Z,22.60
2018-07-28T23:16:18.807Z,22.60
2018-07-28T23:18:46.257Z,22.60
2018-07-28T23:21:13.681Z,22.60
2018-07-28T23:23:41.109Z,22.60
2018-07-28T23:26:08.570Z,22.50
2018-07-28T23:28:36.150Z,22.40
2018-07-28T23:31:03.585Z,22.30
2018-07-28T23:33:31.009Z,22.20
2018-07-28T23:35:58.430Z,22.30
2018-07-28T23:38:25.865Z,22.20
2018-07-28T23:40:53.305Z,22.20
2018-07-28T23:43:20.909Z,22.20
2018-07-28T23:45:48.330Z,22.20
2018-07-28T23:48:15.744Z,22.20
2018-07-28T23:50:43.169Z,22.10
2018-07-28T23:53:10.598Z,22.10
2018-07-28T23:55:38.025Z,22.10
2018-07-28T23:58:05.630Z,22.10
